createdAt,value
2022-08-02T00:02:47.295Z,0.68
2022-08-02T00:05:32.970Z,2.75
2022-08-02T00:08:18.321Z,2.90
2022-08-02T00:11:03.561Z,0.40
2022-08-02T00:13:48.840Z,2.97
2022-08-02T00:16:38.135Z,2.42
2022-08-02T00:19:23.977Z,1.85
2022-08-02T00:22:09.922Z,2.28
2022-08-02T00:24:55.944Z,3.95
2022-08-02T00:27:41.497Z,2.92
2022-08-02T00:30:27.132Z,2.92
2022-08-02T00:33:12.540Z,1.50
2022-08-02T00:35:57.922Z,0.85
2022-08-02T00:38:43.539Z,0.60
2022-08-02T00:41:29.062Z,3.08
2022-08-02T00:44:19.070Z,1.65
2022-08-02T00:47:04.778Z,1.27
2022-08-02T00:49:50.294Z,4.32
2022-08-02T00:52:35.671Z,3.15
2022-08-02T00:55:31.327Z,1.23
2022-08-02T00:58:16.965Z,0.20
2022-08-02T01:01:02.479Z,0.60
2022-08-02T01:03:49.206Z,0.98
2022-08-02T01:06:35.683Z,1.95
2022-08-02T01:09:21.374Z,1.02
2022-08-02T01:12:07.599Z,2.03
2022-08-02T01:15:00.770Z,1.88
2022-08-02T01:17:51.992Z,1.75
2022-08-02T01:21:10.554Z,4.43
2022-08-02T01:24:08.064Z,3.70
2022-08-02T01:27:27.343Z,4.07
2022-08-02T01:30:14.342Z,0.82
2022-08-02T01:33:03.240Z,0.80
2022-08-02T01:35:55.186Z,2.10
2022-08-02T01:38:46.662Z,2.08
2022-08-02T01:41:34.438Z,2.03
2022-08-02T01:44:27.706Z,0.52
2022-08-02T01:47:19.769Z,2.95
2022-08-02T01:52:55.551Z,1.63
2022-08-02T01:55:58.102Z,2.75
2022-08-02T01:58:46.880Z,1.75
2022-08-02T02:01:36.031Z,3.55
2022-08-02T02:04:23.136Z,1.95
2022-08-02T02:07:09.370Z,4.90
2022-08-02T02:09:56.784Z,0.60
2022-08-02T02:12:44.889Z,1.48
2022-08-02T02:15:32.229Z,0.30
2022-08-02T02:18:26.891Z,1.65
2022-08-02T02:21:13.168Z,2.47
2022-08-02T02:23:59.256Z,2.42
2022-08-02T02:26:52.110Z,1.60
2022-08-02T02:29:44.525Z,1.95
2022-08-02T02:32:30.894Z,0.68
2022-08-02T02:35:18.489Z,0.90
2022-08-02T02:38:08.344Z,1.30
2022-08-02T02:40:55.715Z,3.42
2022-08-02T02:43:41.748Z,0.73
2022-08-02T02:46:30.536Z,1.73
2022-08-02T02:49:17.989Z,2.03
2022-08-02T02:52:06.003Z,1.48
2022-08-02T02:54:52.373Z,3.45
2022-08-02T02:57:39.157Z,4.65
2022-08-02T03:00:43.588Z,1.10
2022-08-02T03:03:30.164Z,0.70
2022-08-02T03:06:16.085Z,4.03
2022-08-02T03:09:01.783Z,2.83
2022-08-02T03:11:47.962Z,1.42
2022-08-02T03:14:34.828Z,2.78
2022-08-02T03:17:20.357Z,3.13
2022-08-02T03:20:15.592Z,1.00
2022-08-02T03:23:01.290Z,1.75
2022-08-02T03:25:46.621Z,1.30
2022-08-02T03:28:32.336Z,2.22
2022-08-02T03:31:17.915Z,3.50
2022-08-02T03:34:04.167Z,4.57
2022-08-02T03:36:54.979Z,0.85
2022-08-02T03:39:49.663Z,1.38
2022-08-02T03:42:40.584Z,4.38
2022-08-02T03:45:30.609Z,1.10
2022-08-02T03:48:33.972Z,1.00
2022-08-02T03:51:21.035Z,4.53
2022-08-02T03:54:06.751Z,1.95
2022-08-02T03:56:53.067Z,2.17
2022-08-02T03:59:46.472Z,0.43
2022-08-02T04:02:31.694Z,0.10
2022-08-02T04:05:17.533Z,0.60
2022-08-02T04:08:36.412Z,0.52
2022-08-02T04:11:26.702Z,0.40
2022-08-02T04:14:12.463Z,0.22
2022-08-02T04:17:08.724Z,0.28
2022-08-02T04:19:57.272Z,0.10
2022-08-02T04:22:58.683Z,0.65
2022-08-02T04:25:45.676Z,0.55
2022-08-02T04:28:32.836Z,0.10
2022-08-02T04:31:19.170Z,1.17
2022-08-02T04:34:05.057Z,1.65
2022-08-02T04:36:50.646Z,1.95
2022-08-02T04:39:36.356Z,0.95
2022-08-02T04:42:23.096Z,1.75
2022-08-02T04:45:11.023Z,0.80
2022-08-02T04:48:04.957Z,1.90
2022-08-02T04:50:51.572Z,1.65
2022-08-02T04:53:37.026Z,0.50
2022-08-02T04:56:22.316Z,2.85
2022-08-02T04:59:08.734Z,0.55
2022-08-02T05:01:54.647Z,2.22
2022-08-02T05:04:40.295Z,0.43
2022-08-02T05:07:25.721Z,1.08
2022-08-02T05:10:11.188Z,3.72
2022-08-02T05:12:56.950Z,2.20
2022-08-02T05:15:42.257Z,0.95
2022-08-02T05:18:28.701Z,2.35
2022-08-02T05:21:14.266Z,1.33
2022-08-02T05:24:00.867Z,0.52
2022-08-02T05:26:46.228Z,0.28
2022-08-02T05:29:31.443Z,3.88
2022-08-02T05:32:16.837Z,0.28
2022-08-02T05:35:02.521Z,0.88
2022-08-02T05:37:49.987Z,3.13
2022-08-02T05:40:35.626Z,0.10
2022-08-02T05:43:39.725Z,0.10
2022-08-02T05:46:24.987Z,0.13
2022-08-02T05:49:10.589Z,3.10
2022-08-02T05:52:04.627Z,0.20
2022-08-02T05:55:06.294Z,0.35
2022-08-02T05:57:56.105Z,0.60
2022-08-02T06:00:42.473Z,1.30
2022-08-02T06:03:40.156Z,2.63
2022-08-02T06:06:26.777Z,1.38
2022-08-02T06:09:26.991Z,2.17
2022-08-02T06:12:17.142Z,1.25
2022-08-02T06:15:04.688Z,0.15
2022-08-02T06:17:51.649Z,0.85
2022-08-02T06:20:37.649Z,0.30
2022-08-02T06:23:23.462Z,0.80
2022-08-02T06:26:11.900Z,0.60
2022-08-02T06:28:58.927Z,1.50
2022-08-02T06:31:45.324Z,0.20
2022-08-02T06:34:31.047Z,0.13
2022-08-02T06:37:37.704Z,0.52
2022-08-02T06:40:35.365Z,0.10
2022-08-02T06:43:28.487Z,1.55
2022-08-02T06:46:37.619Z,0.10
2022-08-02T06:49:19.475Z,1.30
2022-08-02T06:52:05.456Z,1.05
2022-08-02T06:54:50.925Z,1.40
2022-08-02T06:57:36.390Z,0.20
2022-08-02T07:00:21.967Z,0.80
2022-08-02T07:03:07.998Z,1.35
2022-08-02T07:05:54.056Z,1.88
2022-08-02T07:08:39.638Z,4.40
2022-08-02T07:11:25.541Z,3.47
2022-08-02T07:14:11.316Z,3.80
2022-08-02T07:16:57.022Z,0.10
2022-08-02T07:19:43.735Z,3.47
2022-08-02T07:22:30.124Z,0.20
2022-08-02T07:25:16.085Z,4.85
2022-08-02T07:28:01.538Z,0.77
2022-08-02T07:30:46.951Z,1.45
2022-08-02T07:33:37.681Z,0.20
2022-08-02T07:36:25.920Z,0.00
2022-08-02T07:39:11.225Z,0.40
2022-08-02T07:41:57.158Z,0.05
2022-08-02T07:44:46.074Z,0.50
2022-08-02T07:47:40.357Z,1.05
2022-08-02T07:50:25.789Z,2.08
2022-08-02T07:53:11.302Z,2.00
2022-08-02T07:55:56.782Z,0.47
2022-08-02T07:58:42.946Z,2.15
2022-08-02T08:01:28.478Z,0.68
2022-08-02T08:04:14.493Z,0.43
2022-08-02T08:06:59.860Z,1.60
2022-08-02T08:09:47.454Z,0.80
2022-08-02T08:12:33.156Z,1.95
2022-08-02T08:15:18.383Z,1.35
2022-08-02T08:18:03.904Z,1.10
2022-08-02T08:20:51.843Z,2.08
2022-08-02T08:23:37.529Z,1.27
2022-08-02T08:26:23.591Z,0.73
2022-08-02T08:29:10.976Z,0.22
2022-08-02T08:31:56.684Z,0.90
2022-08-02T08:34:42.170Z,1.27
2022-08-02T08:37:27.507Z,1.30
2022-08-02T08:40:13.539Z,0.68
2022-08-02T08:43:05.684Z,0.30
2022-08-02T08:45:55.952Z,2.63
2022-08-02T08:48:46.553Z,1.50
2022-08-02T08:51:37.681Z,3.92
2022-08-02T08:54:26.461Z,3.40
2022-08-02T08:57:13.662Z,0.63
2022-08-02T09:00:01.793Z,6.43
2022-08-02T09:02:47.729Z,0.90
2022-08-02T09:05:38.160Z,2.50
2022-08-02T09:08:24.179Z,0.55
2022-08-02T09:11:16.069Z,1.48
2022-08-02T09:14:03.256Z,1.85
2022-08-02T09:16:48.828Z,0.10
2022-08-02T09:19:34.704Z,0.32
2022-08-02T09:22:20.031Z,0.30
2022-08-02T09:25:06.330Z,1.35
2022-08-02T09:27:52.292Z,0.40
2022-08-02T09:30:43.658Z,0.38
2022-08-02T09:33:29.294Z,6.55
2022-08-02T09:36:17.196Z,2.30
2022-08-02T09:39:05.998Z,2.30
2022-08-02T09:41:51.379Z,0.40
2022-08-02T09:44:36.762Z,0.40
2022-08-02T09:47:23.217Z,0.70
2022-08-02T09:50:14.616Z,0.20
2022-08-02T09:53:00.522Z,1.00
2022-08-02T09:55:56.422Z,0.77
2022-08-02T09:58:42.165Z,1.60
2022-08-02T10:01:37.033Z,0.60
2022-08-02T10:04:25.895Z,0.28
2022-08-02T10:07:12.495Z,0.28
2022-08-02T10:09:58.289Z,0.30
2022-08-02T10:12:43.799Z,0.80
2022-08-02T10:15:29.413Z,2.72
2022-08-02T10:18:36.156Z,0.98
2022-08-02T10:21:26.736Z,0.32
2022-08-02T10:24:15.566Z,0.30
2022-08-02T10:27:03.308Z,0.30
2022-08-02T10:29:53.958Z,1.00
2022-08-02T10:32:45.989Z,0.73
2022-08-02T10:35:35.991Z,1.80
2022-08-02T10:38:21.776Z,0.40
2022-08-02T10:41:08.299Z,0.73
2022-08-02T10:43:54.399Z,0.65
2022-08-02T10:46:40.228Z,1.23
2022-08-02T10:49:41.163Z,0.45
2022-08-02T10:52:28.666Z,0.98
2022-08-02T10:55:14.679Z,0.40
2022-08-02T10:58:25.927Z,0.57
2022-08-02T11:01:39.003Z,0.45
2022-08-02T11:04:25.853Z,0.45
2022-08-02T11:07:16.994Z,0.82
2022-08-02T11:10:32.627Z,0.40
2022-08-02T11:13:21.601Z,0.40
2022-08-02T11:16:11.608Z,1.98
2022-08-02T11:18:57.367Z,0.43
2022-08-02T11:22:07.284Z,1.65
2022-08-02T11:24:52.955Z,2.58
2022-08-02T11:27:39.138Z,0.30
2022-08-02T11:30:26.456Z,0.55
2022-08-02T11:33:12.408Z,0.60
2022-08-02T11:36:04.050Z,2.08
2022-08-02T11:38:49.948Z,0.60
2022-08-02T11:41:46.097Z,0.52
2022-08-02T11:44:41.354Z,3.65
2022-08-02T11:47:27.180Z,1.08
2022-08-02T11:50:13.097Z,3.72
2022-08-02T11:52:58.821Z,0.43
2022-08-02T11:55:44.068Z,2.15
2022-08-02T11:58:29.315Z,1.35
2022-08-02T12:01:14.707Z,0.55
2022-08-02T12:04:02.728Z,1.08
2022-08-02T12:06:56.774Z,0.55
2022-08-02T12:09:42.293Z,3.30
2022-08-02T12:12:28.032Z,1.67
2022-08-02T12:15:13.672Z,4.10
2022-08-02T12:18:18.418Z,2.35
2022-08-02T12:21:20.224Z,0.77
2022-08-02T12:24:05.662Z,0.60
2022-08-02T12:26:51.173Z,1.27
2022-08-02T12:29:57.619Z,1.02
2022-08-02T12:32:45.686Z,1.10
2022-08-02T12:35:31.338Z,0.45
2022-08-02T12:38:17.189Z,1.33
2022-08-02T12:41:31.185Z,0.50
2022-08-02T12:44:19.829Z,0.93
2022-08-02T12:47:12.617Z,5.18
2022-08-02T12:50:25.701Z,0.73
2022-08-02T12:53:15.495Z,0.52
2022-08-02T12:56:03.894Z,3.05
2022-08-02T12:58:50.768Z,0.30
2022-08-02T13:01:36.899Z,2.05
2022-08-02T13:04:22.397Z,0.57
2022-08-02T13:07:07.800Z,0.50
2022-08-02T13:10:00.349Z,0.68
2022-08-02T13:12:49.532Z,0.60
2022-08-02T13:15:50.023Z,5.72
2022-08-02T13:18:36.938Z,0.88
2022-08-02T13:21:39.858Z,0.47
2022-08-02T13:24:38.066Z,0.60
2022-08-02T13:27:26.560Z,0.75
2022-08-02T13:30:12.211Z,1.65
2022-08-02T13:33:00.949Z,1.27
2022-08-02T13:35:50.090Z,1.48
2022-08-02T13:38:35.298Z,0.28
2022-08-02T13:41:20.656Z,1.05
2022-08-02T13:44:10.359Z,0.50
2022-08-02T13:46:56.644Z,0.50
2022-08-02T13:49:51.465Z,1.08
2022-08-02T13:52:37.628Z,1.65
2022-08-02T13:55:23.085Z,0.43
2022-08-02T13:58:08.451Z,0.98
2022-08-02T14:00:54.118Z,0.50
2022-08-02T14:04:07.224Z,0.35
2022-08-02T14:06:45.360Z,0.47
2022-08-02T14:09:33.553Z,0.82
2022-08-02T14:12:19.616Z,0.65
2022-08-02T14:15:05.520Z,1.67
2022-08-02T14:17:50.864Z,0.60
2022-08-02T14:20:38.422Z,1.02
2022-08-02T14:23:49.882Z,0.60
2022-08-02T14:26:30.600Z,0.95
2022-08-02T14:29:16.665Z,0.95
2022-08-02T14:32:02.897Z,1.40
2022-08-02T14:34:48.519Z,0.82
2022-08-02T14:37:34.841Z,1.92
2022-08-02T14:40:31.070Z,0.52
2022-08-02T14:43:36.056Z,2.38
2022-08-02T14:46:22.050Z,0.57
2022-08-02T14:49:10.365Z,0.30
2022-08-02T14:51:57.127Z,0.90
2022-08-02T14:54:43.275Z,0.30
2022-08-02T14:57:28.864Z,1.25
2022-08-02T15:00:15.492Z,1.75
2022-08-02T15:03:01.068Z,0.40
2022-08-02T15:05:46.424Z,0.40
2022-08-02T15:08:34.679Z,0.30
2022-08-02T15:11:20.069Z,0.55
2022-08-02T15:14:05.545Z,0.43
2022-08-02T15:16:56.532Z,0.63
2022-08-02T15:19:58.851Z,0.90
2022-08-02T15:22:45.680Z,0.32
2022-08-02T15:25:38.477Z,0.30
2022-08-02T15:28:29.664Z,8.18
2022-08-02T15:31:33.496Z,0.35
2022-08-02T15:34:19.626Z,0.28
2022-08-02T15:37:05.082Z,1.45
2022-08-02T15:39:50.584Z,2.40
2022-08-02T15:42:36.331Z,0.57
2022-08-02T15:45:21.878Z,0.35
2022-08-02T15:48:08.067Z,0.63
2022-08-02T15:50:53.452Z,0.30
2022-08-02T15:53:38.723Z,3.30
2022-08-02T15:56:24.547Z,1.63
2022-08-02T15:59:10.393Z,1.27
2022-08-02T16:01:56.187Z,4.85
2022-08-02T16:04:42.178Z,2.42
2022-08-02T16:07:28.059Z,0.40
2022-08-02T16:10:15.041Z,1.73
2022-08-02T16:13:18.885Z,0.38
2022-08-02T16:16:04.670Z,1.33
2022-08-02T16:18:50.381Z,0.70
2022-08-02T16:21:36.144Z,0.47
2022-08-02T16:24:21.848Z,0.60
2022-08-02T16:27:08.617Z,2.03
2022-08-02T16:29:54.617Z,0.43
2022-08-02T16:32:40.016Z,0.40
2022-08-02T16:35:25.492Z,0.73
2022-08-02T16:38:11.177Z,1.15
2022-08-02T16:41:01.203Z,2.65
2022-08-02T16:43:47.529Z,2.83
2022-08-02T16:46:33.143Z,0.57
2022-08-02T16:50:03.940Z,1.15
2022-08-02T16:52:24.376Z,0.52
2022-08-02T16:55:11.105Z,0.50
2022-08-02T16:57:57.215Z,0.70
2022-08-02T17:00:46.276Z,0.63
2022-08-02T17:03:33.542Z,0.82
2022-08-02T17:06:38.375Z,0.88
2022-08-02T17:10:03.879Z,3.30
2022-08-02T17:12:31.016Z,0.63
2022-08-02T17:16:01.463Z,0.63
2022-08-02T17:18:26.561Z,0.55
2022-08-02T17:21:11.923Z,1.38
2022-08-02T17:24:06.316Z,0.52
2022-08-02T17:26:53.336Z,0.50
2022-08-02T17:29:42.005Z,0.93
2022-08-02T17:32:29.338Z,0.50
2022-08-02T17:35:15.714Z,0.93
2022-08-02T17:38:02.435Z,3.35
2022-08-02T17:40:50.892Z,0.40
2022-08-02T17:43:39.547Z,1.02
2022-08-02T17:46:26.592Z,0.98
2022-08-02T17:49:16.840Z,0.77
2022-08-02T17:52:48.636Z,2.08
2022-08-02T17:55:10.732Z,0.85
2022-08-02T17:57:59.172Z,1.77
2022-08-02T18:00:45.407Z,1.77
2022-08-02T18:03:32.389Z,3.10
2022-08-02T18:06:18.709Z,0.80
2022-08-02T18:09:11.599Z,0.85
2022-08-02T18:11:58.046Z,3.50
2022-08-02T18:14:46.047Z,9.13
2022-08-02T18:17:34.705Z,1.20
2022-08-02T18:20:20.970Z,1.23
2022-08-02T18:23:10.146Z,1.85
2022-08-02T18:26:13.219Z,2.05
2022-08-02T18:29:00.446Z,0.63
2022-08-02T18:31:51.019Z,2.55
2022-08-02T18:34:36.697Z,1.95
2022-08-02T18:37:24.561Z,1.27
2022-08-02T18:40:10.736Z,1.80
2022-08-02T18:42:56.341Z,2.13
2022-08-02T18:46:05.719Z,1.02
2022-08-02T18:48:48.277Z,3.00
2022-08-02T18:51:36.516Z,2.03
2022-08-02T18:54:30.694Z,2.00
2022-08-02T18:58:16.770Z,3.13
2022-08-02T19:00:26.448Z,1.83
2022-08-02T19:03:12.346Z,2.50
2022-08-02T19:06:00.314Z,3.83
2022-08-02T19:08:45.973Z,4.10
2022-08-02T19:11:51.263Z,4.13
2022-08-02T19:14:36.988Z,4.63
2022-08-02T19:17:54.851Z,7.13
2022-08-02T19:20:29.567Z,3.05
2022-08-02T19:23:17.204Z,3.22
2022-08-02T19:26:03.998Z,3.03
2022-08-02T19:28:49.918Z,2.45
2022-08-02T19:32:00.226Z,3.25
2022-08-02T19:34:41.201Z,3.92
2022-08-02T19:37:37.110Z,2.92
2022-08-02T19:40:24.575Z,6.60
2022-08-02T19:44:25.847Z,8.77
2022-08-02T19:46:16.763Z,12.48
2022-08-02T19:49:20.175Z,10.48
2022-08-02T19:52:21.911Z,3.58
2022-08-02T19:56:00.765Z,3.28
2022-08-02T19:58:16.296Z,3.25
2022-08-02T20:01:01.630Z,5.60
2022-08-02T20:03:51.443Z,5.38
2022-08-02T20:06:39.214Z,4.82
2022-08-02T20:09:33.296Z,2.70
2022-08-02T20:12:37.055Z,4.65
2022-08-02T20:15:23.005Z,3.72
2022-08-02T20:18:30.079Z,4.28
2022-08-02T20:21:34.251Z,5.10
2022-08-02T20:24:22.422Z,4.20
2022-08-02T20:27:16.566Z,6.57
2022-08-02T20:30:03.127Z,5.50
2022-08-02T20:32:52.674Z,4.50
2022-08-02T20:35:40.237Z,3.20
2022-08-02T20:38:30.820Z,5.32
2022-08-02T20:41:20.251Z,5.22
2022-08-02T20:44:15.911Z,5.13
2022-08-02T20:47:13.103Z,2.78
2022-08-02T20:50:17.130Z,5.80
2022-08-02T20:53:04.980Z,5.50
2022-08-02T20:55:53.579Z,8.63
2022-08-02T20:58:39.807Z,7.43
2022-08-02T21:01:25.377Z,11.93
2022-08-02T21:04:22.450Z,10.15
2022-08-02T21:07:11.510Z,8.98
2022-08-02T21:09:58.834Z,6.57
2022-08-02T21:12:45.336Z,8.75
2022-08-02T21:15:36.131Z,10.48
2022-08-02T21:18:39.623Z,4.57
2022-08-02T21:21:26.671Z,7.20
2022-08-02T21:24:13.390Z,7.35
2022-08-02T21:27:00.300Z,5.43
2022-08-02T21:29:46.119Z,6.10
2022-08-02T21:32:31.607Z,5.88
2022-08-02T21:35:18.198Z,9.80
2022-08-02T21:38:03.826Z,13.95
2022-08-02T21:40:49.155Z,4.68
2022-08-02T21:43:39.065Z,7.88
2022-08-02T21:46:25.199Z,6.85
2022-08-02T21:49:14.550Z,11.30
2022-08-02T21:52:01.871Z,13.68
2022-08-02T21:54:47.473Z,6.40
2022-08-02T21:57:34.024Z,7.25
2022-08-02T22:00:28.484Z,5.30
2022-08-02T22:03:22.944Z,6.65
2022-08-02T22:06:09.401Z,7.65
2022-08-02T22:08:55.318Z,10.57
2022-08-02T22:11:42.021Z,6.97
2022-08-02T22:14:28.614Z,12.48
2022-08-02T22:17:14.066Z,7.45
2022-08-02T22:19:59.413Z,6.78
2022-08-02T22:22:45.293Z,8.70
2022-08-02T22:25:37.498Z,5.32
2022-08-02T22:28:39.307Z,9.90
2022-08-02T22:31:41.248Z,7.30
2022-08-02T22:34:51.123Z,5.20
2022-08-02T22:40:44.520Z,7.18
2022-08-02T22:43:31.395Z,8.27
2022-08-02T22:46:19.346Z,8.07
2022-08-02T22:49:37.011Z,7.65
2022-08-02T22:52:20.076Z,8.00
2022-08-02T22:55:07.004Z,10.50
2022-08-02T22:57:56.744Z,5.63
2022-08-02T22:59:09.598Z,9.77
2022-08-02T23:00:42.729Z,9.18
2022-08-02T23:03:28.489Z,12.27
2022-08-02T23:06:13.862Z,10.75
2022-08-02T23:08:59.137Z,7.50
2022-08-02T23:11:44.568Z,8.65
2022-08-02T23:14:30.039Z,6.18
2022-08-02T23:17:34.118Z,9.38
2022-08-02T23:20:19.762Z,7.47
2022-08-02T23:23:11.569Z,8.45
2022-08-02T23:25:57.600Z,14.93
2022-08-02T23:28:43.056Z,6.28
2022-08-02T23:31:37.494Z,6.72
2022-08-02T23:34:23.818Z,8.10
2022-08-02T23:37:09.517Z,8.30
2022-08-02T23:39:55.371Z,7.10
2022-08-02T23:42:40.696Z,8.88
2022-08-02T23:45:26.166Z,4.55
2022-08-02T23:48:21.154Z,8.82
2022-08-02T23:51:06.592Z,8.68
2022-08-02T23:53:52.231Z,4.72
2022-08-02T23:56:39.134Z,4.93
2022-08-02T23:59:25.144Z,3.08
